Time;durP1;ratioP1;P1;durP2;ratioP2;P2;SDS_P1;SDS_P2;PMS_P1;PMS_P2;Temp;Humidity;BMP_temperature;BMP_pressure;BME280_temperature;BME280_humidity;BME280_pressure;Samples;Min_cycle;Max_cycle;Signal;HPM_P1;HPM_P2
2022/10/19 00:02:09;;;;;;;3.45;2.70;;;13.40;99.90;;;;;;5066741;28;20115;-85
2022/10/19 00:04:35;;;;;;;7.03;2.42;;;13.40;99.90;;;;;;5049248;28;20029;-85
2022/10/19 00:07:01;;;;;;;4.10;2.92;;;13.40;99.90;;;;;;5049337;28;20170;-88
2022/10/19 00:09:28;;;;;;;6.28;4.55;;;13.40;99.90;;;;;;5065693;28;20033;-86
2022/10/19 00:11:53;;;;;;;6.00;3.67;;;13.30;99.90;;;;;;5066718;28;20547;-85
2022/10/19 00:14:22;;;;;;;3.17;2.88;;;13.30;99.90;;;;;;5065387;28;20029;-85
2022/10/19 00:16:50;;;;;;;13.88;3.95;;;13.30;99.90;;;;;;5048980;28;20021;-85
2022/10/19 00:19:23;;;;;;;8.02;3.97;;;13.20;99.90;;;;;;5065514;28;20025;-85
2022/10/19 00:21:50;;;;;;;3.97;2.58;;;13.30;99.90;;;;;;5045441;28;20029;-86
2022/10/19 00:24:15;;;;;;;11.57;4.18;;;13.20;99.90;;;;;;5055916;28;20088;-86
2022/10/19 00:26:41;;;;;;;11.00;3.15;;;13.20;99.90;;;;;;5048459;28;20049;-85
2022/10/19 00:29:07;;;;;;;4.38;3.78;;;13.20;99.90;;;;;;5065588;28;20055;-85
2022/10/19 00:31:33;;;;;;;5.18;3.05;;;13.20;99.90;;;;;;5048313;28;20025;-86
2022/10/19 00:34:00;;;;;;;5.95;2.38;;;13.20;99.90;;;;;;5065399;28;20062;-85
2022/10/19 00:36:28;;;;;;;6.93;2.90;;;13.20;99.90;;;;;;5065542;28;20048;-85
2022/10/19 00:38:55;;;;;;;2.97;2.78;;;13.20;99.90;;;;;;5048644;28;20017;-86
2022/10/19 00:41:24;;;;;;;3.90;3.55;;;13.20;99.90;;;;;;5048394;28;20037;-85
2022/10/19 00:44:04;;;;;;;5.30;3.75;;;13.10;99.90;;;;;;5066573;28;20029;-86
2022/10/19 00:46:36;;;;;;;4.63;2.83;;;13.20;99.90;;;;;;5066449;28;20409;-85
2022/10/19 00:49:13;;;;;;;5.45;2.47;;;13.10;99.90;;;;;;5065075;28;20052;-85
2022/10/19 00:51:43;;;;;;;9.65;3.85;;;13.10;99.90;;;;;;5064468;28;20025;-85
2022/10/19 00:54:10;;;;;;;9.75;3.13;;;13.00;99.90;;;;;;5048087;28;20017;-85
2022/10/19 00:56:40;;;;;;;8.90;3.72;;;13.10;99.90;;;;;;5048387;28;20029;-85
2022/10/19 00:59:07;;;;;;;6.07;2.83;;;13.00;99.90;;;;;;5065037;28;20035;-85
2022/10/19 01:01:34;;;;;;;5.85;3.00;;;13.00;99.90;;;;;;5064447;28;20147;-85
2022/10/19 01:04:01;;;;;;;3.65;3.25;;;13.00;99.90;;;;;;5065012;28;20080;-85
2022/10/19 01:06:27;;;;;;;3.38;2.72;;;13.00;99.90;;;;;;5064412;28;20037;-85
2022/10/19 01:08:53;;;;;;;5.88;2.95;;;13.00;99.90;;;;;;5065990;28;20059;-85
2022/10/19 01:12:10;;;;;;;4.88;3.97;;;13.00;99.90;;;;;;5047800;28;20429;-85
2022/10/19 01:14:39;;;;;;;4.43;3.33;;;13.00;99.90;;;;;;5024026;28;20070;-85
2022/10/19 01:17:07;;;;;;;3.60;3.22;;;13.00;99.90;;;;;;5053327;28;20067;-85
2022/10/19 01:20:04;;;;;;;3.78;3.40;;;12.90;99.90;;;;;;5064873;28;20513;-85
2022/10/19 01:22:55;;;;;;;3.88;2.00;;;12.90;99.90;;;;;;5064695;28;20032;-85
2022/10/19 01:25:32;;;;;;;4.18;3.10;;;12.90;99.90;;;;;;5065618;28;20032;-85
2022/10/19 01:28:17;;;;;;;5.70;3.00;;;12.90;99.90;;;;;;5065746;28;20052;-85
2022/10/19 01:30:56;;;;;;;8.57;4.20;;;12.90;99.90;;;;;;5064739;28;20113;-85
2022/10/19 01:33:38;;;;;;;21.80;5.63;;;12.80;99.90;;;;;;5064545;28;20036;-85
2022/10/19 01:36:30;;;;;;;8.25;2.90;;;12.80;99.90;;;;;;5064544;28;20803;-85
2022/10/19 01:39:09;;;;;;;7.10;2.97;;;12.80;99.90;;;;;;5047955;28;20178;-85
2022/10/19 01:42:11;;;;;;;7.57;2.87;;;12.80;99.90;;;;;;5064441;28;20040;-85
2022/10/19 01:45:04;;;;;;;8.77;3.92;;;12.80;99.90;;;;;;5064527;28;20291;-85
2022/10/19 01:48:13;;;;;;;6.18;3.50;;;12.70;99.90;;;;;;5064354;28;20478;-85
2022/10/19 01:50:54;;;;;;;10.50;3.72;;;12.70;99.90;;;;;;5036287;28;20044;-85
2022/10/19 01:53:20;;;;;;;3.35;3.15;;;12.80;99.90;;;;;;5063727;28;20029;-84
2022/10/19 01:55:50;;;;;;;7.35;2.70;;;12.70;99.90;;;;;;5064491;28;20051;-85
2022/10/19 01:58:25;;;;;;;7.55;4.35;;;12.70;99.90;;;;;;5064080;28;20029;-85
2022/10/19 02:00:53;;;;;;;8.82;4.50;;;12.70;99.90;;;;;;5064239;28;20029;-85
2022/10/19 02:03:19;;;;;;;6.18;3.63;;;12.70;99.90;;;;;;5065059;28;20029;-89
2022/10/19 02:05:47;;;;;;;8.32;2.92;;;12.70;99.90;;;;;;5067062;28;20035;-85
2022/10/19 02:08:20;;;;;;;8.93;3.33;;;12.60;99.90;;;;;;5068212;28;20484;-84
2022/10/19 02:10:46;;;;;;;6.85;3.33;;;12.60;99.90;;;;;;5069175;28;20529;-85
2022/10/19 02:13:15;;;;;;;4.13;3.35;;;12.60;99.90;;;;;;5067589;28;20033;-85
2022/10/19 02:15:45;;;;;;;5.38;3.78;;;12.60;99.90;;;;;;5068181;28;20029;-85
2022/10/19 02:18:17;;;;;;;4.93;3.63;;;12.60;99.90;;;;;;5068070;28;20067;-88
2022/10/19 02:20:43;;;;;;;7.30;4.18;;;12.60;99.90;;;;;;5067832;28;20032;-85
2022/10/19 02:23:09;;;;;;;9.57;5.05;;;12.60;99.90;;;;;;5067459;28;20028;-85
2022/10/19 02:25:35;;;;;;;3.08;2.75;;;12.60;99.90;;;;;;5067770;28;20025;-85
2022/10/19 02:28:03;;;;;;;13.95;4.43;;;12.60;99.90;;;;;;5050978;28;20040;-85
2022/10/19 02:30:29;;;;;;;4.43;3.53;;;12.50;99.90;;;;;;5068636;28;20025;-85
2022/10/19 02:32:54;;;;;;;4.43;3.17;;;12.50;99.90;;;;;;5069067;28;20079;-85
2022/10/19 02:35:21;;;;;;;9.88;4.07;;;12.50;99.90;;;;;;5067072;28;20024;-85
2022/10/19 02:37:47;;;;;;;15.57;5.20;;;12.50;99.90;;;;;;5067562;28;20027;-85
2022/10/19 02:40:13;;;;;;;3.67;2.90;;;12.50;99.90;;;;;;5068846;28;20029;-85
2022/10/19 02:42:54;;;;;;;8.05;4.63;;;12.50;99.90;;;;;;5050917;28;20056;-85
2022/10/19 02:45:26;;;;;;;8.98;3.92;;;12.50;99.90;;;;;;5066971;28;20033;-85
2022/10/19 02:48:12;;;;;;;6.15;3.63;;;12.50;99.90;;;;;;5050877;28;20038;-85
2022/10/19 02:50:43;;;;;;;3.90;3.47;;;12.40;99.90;;;;;;5067288;28;20025;-85
2022/10/19 02:53:09;;;;;;;4.95;3.85;;;12.40;99.90;;;;;;5067255;28;20060;-84
2022/10/19 02:55:34;;;;;;;11.45;4.72;;;12.40;99.90;;;;;;5050543;28;20017;-85
2022/10/19 02:58:00;;;;;;;6.80;2.63;;;12.40;99.90;;;;;;5067280;28;20051;-86
2022/10/19 03:00:26;;;;;;;8.63;3.45;;;12.40;99.90;;;;;;5067145;28;20029;-85
2022/10/19 03:02:52;;;;;;;7.47;3.40;;;12.40;99.90;;;;;;5067166;28;20036;-85
2022/10/19 03:05:18;;;;;;;6.82;4.43;;;12.30;99.90;;;;;;5050187;28;20037;-85
2022/10/19 03:07:44;;;;;;;5.45;3.88;;;12.30;99.90;;;;;;5050519;28;20051;-85
2022/10/19 03:10:09;;;;;;;8.35;3.97;;;12.30;99.90;;;;;;5050300;28;20123;-86
2022/10/19 03:12:35;;;;;;;10.68;3.95;;;12.30;99.90;;;;;;5066747;28;20097;-86
2022/10/19 03:15:01;;;;;;;6.85;5.15;;;12.30;99.90;;;;;;5066512;28;20090;-85
2022/10/19 03:17:27;;;;;;;11.52;3.85;;;12.30;99.90;;;;;;5061052;28;20031;-85
2022/10/19 03:19:52;;;;;;;3.22;2.97;;;12.30;99.90;;;;;;5049863;28;20046;-85
2022/10/19 03:22:18;;;;;;;6.30;4.85;;;12.30;99.90;;;;;;5066819;28;20028;-85
2022/10/19 03:24:44;;;;;;;5.90;3.42;;;12.30;99.90;;;;;;5049638;28;20521;-85
2022/10/19 03:27:10;;;;;;;6.10;4.22;;;12.30;99.90;;;;;;5049991;28;20116;-86
2022/10/19 03:29:36;;;;;;;4.15;3.20;;;12.40;99.90;;;;;;5066675;28;20040;-85
2022/10/19 03:32:02;;;;;;;3.05;2.72;;;12.20;99.90;;;;;;5050024;28;20185;-85
2022/10/19 03:34:28;;;;;;;5.43;2.72;;;12.20;99.90;;;;;;5066349;28;20036;-85
2022/10/19 03:36:55;;;;;;;6.22;3.78;;;12.20;99.90;;;;;;5066383;28;20052;-85
2022/10/19 03:39:21;;;;;;;4.60;3.63;;;12.20;99.90;;;;;;5066353;28;20031;-85
2022/10/19 03:41:47;;;;;;;9.43;5.57;;;12.20;99.90;;;;;;5066380;28;20033;-86
2022/10/19 03:44:13;;;;;;;7.43;3.38;;;12.20;99.90;;;;;;5065824;28;20036;-84
2022/10/19 03:46:39;;;;;;;3.75;3.42;;;12.10;99.90;;;;;;5049571;28;20029;-85
2022/10/19 03:49:05;;;;;;;6.32;3.63;;;12.10;99.90;;;;;;5066300;28;20029;-84
2022/10/19 03:51:32;;;;;;;5.07;4.13;;;12.10;99.90;;;;;;5067392;28;20438;-85
2022/10/19 03:54:00;;;;;;;5.90;3.97;;;12.10;99.90;;;;;;5049047;28;20080;-85
2022/10/19 03:56:28;;;;;;;4.93;3.72;;;12.10;99.90;;;;;;5066123;28;20059;-85
2022/10/19 03:58:56;;;;;;;5.00;3.50;;;12.10;99.90;;;;;;5065861;28;20036;-85
2022/10/19 04:01:28;;;;;;;4.70;3.72;;;12.10;99.90;;;;;;5049219;28;20597;-85
2022/10/19 04:04:00;;;;;;;12.23;3.47;;;12.10;99.90;;;;;;5065431;28;20550;-85
2022/10/19 04:06:37;;;;;;;5.45;4.22;;;12.00;99.90;;;;;;5066038;28;20029;-85
2022/10/19 04:09:05;;;;;;;9.95;4.45;;;12.00;99.90;;;;;;5065960;28;20420;-85
2022/10/19 04:11:32;;;;;;;3.85;3.50;;;12.00;99.90;;;;;;5066795;28;20029;-85
2022/10/19 04:13:59;;;;;;;6.25;5.72;;;12.00;99.90;;;;;;5065458;28;20024;-85
2022/10/19 04:16:27;;;;;;;4.38;3.97;;;11.90;99.90;;;;;;5066001;28;20025;-85
2022/10/19 04:18:53;;;;;;;4.05;3.67;;;11.90;99.90;;;;;;5048922;28;20120;-86
2022/10/19 04:21:28;;;;;;;9.40;3.95;;;11.90;99.90;;;;;;5066594;28;20078;-85
2022/10/19 04:24:07;;;;;;;10.18;5.25;;;11.90;99.90;;;;;;5066970;28;20048;-84
2022/10/19 04:26:36;;;;;;;9.48;4.38;;;11.90;99.90;;;;;;5065435;28;20036;-85
2022/10/19 04:29:02;;;;;;;4.40;3.95;;;11.90;99.90;;;;;;5066207;28;20043;-85
2022/10/19 04:31:28;;;;;;;5.35;3.97;;;11.90;99.90;;;;;;5066958;28;20029;-84
2022/10/19 04:33:55;;;;;;;5.22;4.15;;;11.90;99.90;;;;;;5066354;28;20036;-85
2022/10/19 04:36:21;;;;;;;5.57;4.70;;;11.80;99.90;;;;;;5065125;28;20029;-87
2022/10/19 04:38:47;;;;;;;4.43;4.03;;;11.90;99.90;;;;;;5064999;28;20032;-87
2022/10/19 04:41:16;;;;;;;9.82;5.32;;;11.80;99.90;;;;;;5063817;28;20427;-86
2022/10/19 04:43:44;;;;;;;7.63;5.43;;;11.80;99.90;;;;;;5064751;28;20028;-85
2022/10/19 04:46:12;;;;;;;5.03;4.57;;;11.80;99.90;;;;;;5045024;28;20511;-86
2022/10/19 04:48:40;;;;;;;5.38;4.80;;;11.80;99.90;;;;;;5064021;28;20500;-87
2022/10/19 04:51:07;;;;;;;7.00;4.95;;;11.80;99.90;;;;;;5045413;28;20505;-84
2022/10/19 04:53:33;;;;;;;7.78;5.32;;;11.80;99.90;;;;;;5076357;28;20093;-86
2022/10/19 04:56:03;;;;;;;9.27;5.30;;;11.70;99.90;;;;;;5062450;28;20025;-87
2022/10/19 04:58:29;;;;;;;8.85;6.28;;;11.80;99.90;;;;;;5047977;28;20029;-87
2022/10/19 05:00:55;;;;;;;6.65;4.13;;;11.80;99.90;;;;;;5060819;28;20029;-85
2022/10/19 05:03:21;;;;;;;6.15;4.55;;;11.80;99.90;;;;;;5046714;28;20065;-85
2022/10/19 05:05:47;;;;;;;8.50;4.40;;;;;;;;;;5057981;28;20084;-88
2022/10/19 05:08:13;;;;;;;5.20;4.68;;;11.70;99.90;;;;;;5056509;28;20089;-87
2022/10/19 05:10:39;;;;;;;6.13;4.65;;;11.70;99.90;;;;;;5047228;28;20033;-87
2022/10/19 05:13:05;;;;;;;7.45;5.38;;;11.70;99.90;;;;;;5031702;28;20045;-84
2022/10/19 05:15:31;;;;;;;7.82;5.07;;;11.70;99.90;;;;;;5046768;28;20095;-86
2022/10/19 05:17:58;;;;;;;11.45;7.15;;;11.70;99.90;;;;;;5052648;28;20035;-87
2022/10/19 05:20:24;;;;;;;5.40;4.90;;;11.70;99.90;;;;;;5063935;28;20029;-85
2022/10/19 05:22:50;;;;;;;6.72;4.88;;;11.70;99.90;;;;;;5064470;28;20486;-87
2022/10/19 05:25:16;;;;;;;13.05;5.15;;;11.70;99.90;;;;;;5047704;28;20506;-87
2022/10/19 05:27:43;;;;;;;6.68;5.28;;;;;;;;;;5047291;28;20092;-87
2022/10/19 05:30:09;;;;;;;5.15;4.47;;;11.70;99.90;;;;;;5047589;28;20032;-85
2022/10/19 05:32:35;;;;;;;9.02;5.03;;;11.60;99.90;;;;;;5031398;28;20111;-87
2022/10/19 05:35:01;;;;;;;8.45;4.60;;;11.30;99.90;;;;;;5047333;28;20017;-87
2022/10/19 05:37:27;;;;;;;15.05;6.30;;;11.60;99.90;;;;;;5047272;28;20021;-86
2022/10/19 05:39:54;;;;;;;5.05;4.65;;;11.60;99.90;;;;;;5055426;28;20021;-85
2022/10/19 05:42:20;;;;;;;8.75;5.07;;;11.60;99.90;;;;;;5067705;28;20029;-85
2022/10/19 05:44:45;;;;;;;6.53;5.03;;;11.60;99.90;;;;;;5022703;28;20040;-85
2022/10/19 05:47:11;;;;;;;6.88;4.30;;;11.60;99.90;;;;;;5063706;28;20029;-83
2022/10/19 05:49:37;;;;;;;13.88;5.80;;;11.50;99.90;;;;;;5067589;28;20059;-86
2022/10/19 05:52:03;;;;;;;6.40;4.93;;;11.50;99.90;;;;;;5034648;28;20025;-86
2022/10/19 05:54:28;;;;;;;8.15;5.28;;;11.50;99.90;;;;;;5049753;28;20033;-85
2022/10/19 05:56:55;;;;;;;6.82;5.55;;;11.50;99.90;;;;;;5047969;28;20397;-86
2022/10/19 05:59:22;;;;;;;14.55;6.80;;;11.50;99.90;;;;;;5063848;28;20020;-86
2022/10/19 06:01:48;;;;;;;10.00;5.18;;;11.50;99.90;;;;;;5068010;28;20040;-87
2022/10/19 06:04:13;;;;;;;8.90;4.82;;;11.50;99.90;;;;;;5067807;28;20162;-85
2022/10/19 06:06:41;;;;;;;6.25;4.63;;;11.50;99.90;;;;;;5067943;28;20021;-86
2022/10/19 06:09:08;;;;;;;12.30;5.82;;;11.50;99.90;;;;;;5067946;28;20029;-85
2022/10/19 06:11:37;;;;;;;7.50;4.55;;;11.50;99.90;;;;;;5065890;28;20429;-85
2022/10/19 06:14:07;;;;;;;7.63;5.35;;;11.50;99.90;;;;;;5067509;28;20051;-88
2022/10/19 06:16:33;;;;;;;5.90;4.20;;;11.50;99.90;;;;;;5048263;28;20041;-86
2022/10/19 06:18:59;;;;;;;10.90;4.78;;;11.50;99.90;;;;;;5060969;28;20021;-85
2022/10/19 06:21:28;;;;;;;19.58;5.63;;;11.40;99.90;;;;;;5050820;28;20032;-86
2022/10/19 06:24:02;;;;;;;5.18;4.50;;;11.40;99.90;;;;;;5068816;28;20470;-87
2022/10/19 06:26:30;;;;;;;6.03;4.75;;;11.40;99.90;;;;;;5066389;28;20037;-85
2022/10/19 06:28:59;;;;;;;7.93;5.93;;;11.40;99.90;;;;;;5062040;28;20029;-86
2022/10/19 06:31:26;;;;;;;9.10;4.88;;;11.40;99.90;;;;;;5047925;28;20037;-86
2022/10/19 06:33:52;;;;;;;6.15;5.63;;;11.40;99.90;;;;;;5064098;28;20505;-86
2022/10/19 06:36:23;;;;;;;9.65;6.25;;;11.40;99.90;;;;;;5050990;28;20028;-86
2022/10/19 06:38:49;;;;;;;4.28;3.88;;;11.40;99.90;;;;;;5055051;28;20590;-86
2022/10/19 06:41:16;;;;;;;5.90;5.30;;;11.40;99.90;;;;;;5067993;28;20035;-86
2022/10/19 06:43:42;;;;;;;8.40;4.25;;;11.40;99.90;;;;;;5060143;28;20041;-88
2022/10/19 06:46:14;;;;;;;12.20;5.90;;;11.40;99.90;;;;;;5053050;28;20036;-86
2022/10/19 06:48:41;;;;;;;8.63;4.22;;;11.40;99.90;;;;;;5067315;28;20398;-88
2022/10/19 06:51:07;;;;;;;11.13;4.78;;;11.40;99.90;;;;;;5066621;28;20017;-85
2022/10/19 06:53:36;;;;;;;5.78;5.00;;;11.40;99.90;;;;;;5049643;28;20029;-85
2022/10/19 06:56:04;;;;;;;8.35;4.90;;;11.40;99.90;;;;;;5066489;28;20036;-87
2022/10/19 06:58:33;;;;;;;5.60;5.15;;;11.40;99.90;;;;;;5050038;28;20028;-88
2022/10/19 07:01:00;;;;;;;5.60;3.72;;;11.40;99.90;;;;;;5065983;28;20031;-87
2022/10/19 07:03:28;;;;;;;5.78;4.03;;;11.40;99.90;;;;;;5081460;28;20021;-87
2022/10/19 07:05:59;;;;;;;6.68;4.22;;;11.40;99.90;;;;;;5050214;28;20086;-87
2022/10/19 07:08:27;;;;;;;5.18;4.65;;;11.40;99.90;;;;;;5068175;28;20382;-87
2022/10/19 07:10:57;;;;;;;5.28;4.78;;;11.30;99.90;;;;;;5067900;28;20031;-87
2022/10/19 07:13:23;;;;;;;16.30;5.63;;;11.40;99.90;;;;;;5067799;28;20470;-87
2022/10/19 07:15:55;;;;;;;11.13;4.93;;;11.40;99.90;;;;;;5050182;28;20021;-87
2022/10/19 07:18:21;;;;;;;5.15;4.72;;;11.60;99.90;;;;;;5066455;28;20028;-88
2022/10/19 07:20:58;;;;;;;8.25;4.60;;;11.50;99.90;;;;;;5068059;28;20025;-88
2022/10/19 07:23:28;;;;;;;13.68;5.38;;;11.40;99.90;;;;;;5067699;28;20812;-87
2022/10/19 07:25:59;;;;;;;8.45;5.93;;;11.40;99.90;;;;;;5066563;28;20112;-87
2022/10/19 07:28:25;;;;;;;10.70;5.10;;;11.40;99.90;;;;;;5065904;28;20106;-87
2022/10/19 07:30:51;;;;;;;6.18;3.92;;;11.40;99.90;;;;;;5066392;28;20031;-87
2022/10/19 07:33:17;;;;;;;10.73;4.60;;;11.50;99.90;;;;;;5049369;28;20025;-87
2022/10/19 07:35:43;;;;;;;10.18;5.63;;;11.40;99.90;;;;;;5066432;28;20029;-87
2022/10/19 07:38:09;;;;;;;6.70;5.03;;;11.50;99.90;;;;;;5033138;28;20028;-87
2022/10/19 07:40:36;;;;;;;5.85;4.60;;;11.50;99.90;;;;;;5044868;28;20021;-86
2022/10/19 07:43:02;;;;;;;10.15;4.60;;;11.50;99.90;;;;;;5049462;28;20114;-87
2022/10/19 07:45:28;;;;;;;12.38;4.32;;;11.50;99.90;;;;;;5046239;28;20064;-87
2022/10/19 07:47:54;;;;;;;8.07;5.70;;;11.50;99.90;;;;;;5063099;28;20032;-87
2022/10/19 07:50:24;;;;;;;7.43;4.50;;;11.50;99.90;;;;;;5049353;28;20033;-87
2022/10/19 07:52:53;;;;;;;12.25;6.15;;;11.50;99.90;;;;;;5065848;28;20033;-87
2022/10/19 07:55:19;;;;;;;7.55;3.75;;;11.50;99.90;;;;;;5065715;28;20490;-88
2022/10/19 07:57:49;;;;;;;11.27;6.82;;;11.50;99.90;;;;;;5066717;28;20040;-88
2022/10/19 08:00:16;;;;;;;45.83;11.63;;;11.50;99.90;;;;;;5048635;28;20028;-88
2022/10/19 08:02:45;;;;;;;18.83;8.68;;;11.40;99.90;;;;;;5066153;28;20037;-89
2022/10/19 08:05:11;;;;;;;13.50;6.43;;;11.40;99.90;;;;;;5066697;28;20040;-88
2022/10/19 08:07:38;;;;;;;8.68;7.30;;;11.40;99.90;;;;;;5065897;28;20033;-87
2022/10/19 08:10:04;;;;;;;14.50;6.88;;;11.50;99.90;;;;;;5049224;28;20053;-89
2022/10/19 08:12:30;;;;;;;9.55;5.85;;;11.50;99.90;;;;;;5065810;28;20024;-88
2022/10/19 08:14:56;;;;;;;8.57;5.32;;;11.60;99.90;;;;;;5067149;28;20028;-88
2022/10/19 08:17:22;;;;;;;10.88;5.32;;;11.50;99.90;;;;;;5065659;28;20041;-89
2022/10/19 08:19:47;;;;;;;8.93;7.63;;;11.50;99.90;;;;;;5065824;28;20028;-87
2022/10/19 08:22:14;;;;;;;12.30;6.70;;;11.50;99.90;;;;;;5063933;28;20029;-88
2022/10/19 08:24:40;;;;;;;18.48;6.88;;;11.50;99.90;;;;;;5029003;28;20128;-89
2022/10/19 08:27:05;;;;;;;10.05;6.22;;;11.60;99.90;;;;;;5029125;28;20049;-88
2022/10/19 08:29:31;;;;;;;13.25;7.78;;;11.60;99.90;;;;;;5045729;28;20557;-88
2022/10/19 08:31:57;;;;;;;12.40;6.40;;;11.70;99.90;;;;;;5051332;28;20039;-88
2022/10/19 08:34:24;;;;;;;8.07;6.88;;;11.70;99.90;;;;;;5045387;28;20037;-88
2022/10/19 08:36:49;;;;;;;24.25;8.13;;;11.70;99.90;;;;;;5045483;28;20037;-89
2022/10/19 08:39:16;;;;;;;12.20;6.30;;;11.70;99.90;;;;;;5046175;28;20061;-89
2022/10/19 08:41:45;;;;;;;6.70;5.22;;;11.80;99.90;;;;;;5045247;28;20022;-87
2022/10/19 08:44:26;;;;;;;11.75;6.40;;;11.80;99.90;;;;;;5045335;28;20037;-90
2022/10/19 08:47:25;;;;;;;14.10;5.88;;;11.80;99.90;;;;;;5046302;28;20029;-88
2022/10/19 08:49:52;;;;;;;11.20;6.32;;;11.90;99.90;;;;;;5045115;28;20045;-87
2022/10/19 08:52:36;;;;;;;12.55;8.73;;;11.90;99.90;;;;;;5045149;28;20044;-88
2022/10/19 08:55:10;;;;;;;12.18;6.90;;;12.00;99.90;;;;;;5045170;28;20037;-89
2022/10/19 08:58:03;;;;;;;9.20;6.43;;;12.00;99.90;;;;;;5045022;28;20052;-89
2022/10/19 09:00:53;;;;;;;10.75;7.38;;;12.10;99.90;;;;;;5058495;28;20035;-88
2022/10/19 09:03:39;;;;;;;13.30;5.93;;;12.20;99.90;;;;;;5045177;28;20029;-88
2022/10/19 09:06:19;;;;;;;15.20;6.45;;;12.20;99.90;;;;;;5058647;28;20037;-88
2022/10/19 09:08:46;;;;;;;9.52;5.88;;;12.20;99.90;;;;;;5064382;28;20025;-87
2022/10/19 09:11:12;;;;;;;14.82;6.20;;;12.30;99.90;;;;;;5064515;28;20024;-88
2022/10/19 09:13:42;;;;;;;7.35;6.43;;;12.30;99.90;;;;;;5047692;28;20028;-87
2022/10/19 09:16:16;;;;;;;12.70;6.93;;;12.40;99.90;;;;;;5060264;28;20025;-88
2022/10/19 09:18:43;;;;;;;11.20;8.05;;;12.40;99.90;;;;;;5078072;28;20094;-87
2022/10/19 09:21:15;;;;;;;12.82;7.50;;;12.50;99.90;;;;;;5063342;28;20033;-88
2022/10/19 09:23:58;;;;;;;9.35;5.40;;;12.50;99.90;;;;;;5050865;28;20355;-88
2022/10/19 09:26:28;;;;;;;11.13;7.07;;;12.60;99.90;;;;;;5065822;28;20033;-87
2022/10/19 09:29:03;;;;;;;11.55;6.63;;;12.80;99.90;;;;;;5064312;28;20019;-87
2022/10/19 09:31:37;;;;;;;11.38;5.47;;;12.90;99.90;;;;;;5063970;28;20126;-88
2022/10/19 09:34:31;;;;;;;10.85;6.32;;;12.90;99.90;;;;;;5064217;28;20021;-87
2022/10/19 09:36:58;;;;;;;17.13;5.97;;;13.10;99.90;;;;;;5065697;28;20036;-87
2022/10/19 09:39:26;;;;;;;10.05;6.38;;;13.20;99.90;;;;;;5064248;28;20031;-87
2022/10/19 09:41:58;;;;;;;12.68;6.30;;;13.20;99.90;;;;;;5064013;28;20059;-88
2022/10/19 09:44:25;;;;;;;9.15;5.53;;;13.30;99.90;;;;;;5064019;28;20028;-88
2022/10/19 09:47:16;;;;;;;19.67;5.97;;;13.40;99.90;;;;;;5064359;28;20032;-88
2022/10/19 09:49:47;;;;;;;7.32;3.88;;;13.50;99.90;;;;;;5065567;28;20093;-87
2022/10/19 09:52:30;;;;;;;6.43;4.63;;;13.50;99.90;;;;;;5065664;28;20031;-87
2022/10/19 09:55:24;;;;;;;10.73;6.45;;;13.60;99.90;;;;;;5064420;28;20092;-88
2022/10/19 09:58:01;;;;;;;7.32;4.85;;;13.60;99.90;;;;;;5044410;28;20070;-87
2022/10/19 10:00:33;;;;;;;8.88;5.28;;;13.60;99.90;;;;;;5055135;28;20156;-87
2022/10/19 10:02:59;;;;;;;5.43;5.00;;;13.70;99.90;;;;;;5051719;28;20385;-88
2022/10/19 10:05:37;;;;;;;5.57;4.68;;;13.80;99.90;;;;;;5046815;28;20116;-87
2022/10/19 10:08:12;;;;;;;5.75;4.57;;;13.80;99.90;;;;;;5065382;28;20390;-87
2022/10/19 10:10:43;;;;;;;12.48;5.15;;;13.90;99.90;;;;;;5046313;28;20064;-87
2022/10/19 10:13:19;;;;;;;13.32;5.10;;;13.90;99.90;;;;;;5044285;28;20475;-87
2022/10/19 10:15:53;;;;;;;5.60;4.43;;;14.00;99.90;;;;;;5044261;28;20037;-87
2022/10/19 10:18:19;;;;;;;11.60;5.25;;;14.10;99.90;;;;;;5054005;28;20025;-87
2022/10/19 10:21:10;;;;;;;8.73;4.85;;;14.10;99.90;;;;;;5065347;28;20056;-87
2022/10/19 10:23:37;;;;;;;8.68;4.53;;;14.20;99.90;;;;;;5064073;28;20033;-87
2022/10/19 10:26:14;;;;;;;7.18;5.10;;;14.20;99.90;;;;;;5065719;28;20100;-88
2022/10/19 10:28:46;;;;;;;8.70;4.45;;;14.20;99.90;;;;;;5067694;28;20053;-87
2022/10/19 10:31:12;;;;;;;4.80;3.92;;;14.30;99.90;;;;;;5068404;28;20385;-88
2022/10/19 10:33:38;;;;;;;7.72;5.90;;;14.40;99.90;;;;;;5046637;28;20026;-88
2022/10/19 10:36:08;;;;;;;10.15;5.03;;;14.50;99.90;;;;;;5047844;28;20029;-88
2022/10/19 10:38:48;;;;;;;4.43;4.03;;;14.60;99.90;;;;;;5057776;28;20025;-88
2022/10/19 10:41:16;;;;;;;;;;;14.60;99.90;;;;;;5069188;28;20059;-87
2022/10/19 10:44:05;;;;;;;7.10;5.32;;;14.60;99.90;;;;;;5068692;28;19908;-87
2022/10/19 10:46:39;;;;;;;4.72;4.25;;;14.70;99.90;;;;;;5084149;28;20035;-87
2022/10/19 10:49:15;;;;;;;7.63;5.72;;;14.80;99.90;;;;;;5067564;28;20032;-87
2022/10/19 10:51:49;;;;;;;15.07;5.78;;;14.80;99.90;;;;;;5048947;28;20030;-88
2022/10/19 10:54:19;;;;;;;9.95;5.45;;;14.90;99.90;;;;;;5047357;28;20029;-87
2022/10/19 10:57:08;;;;;;;10.63;5.68;;;15.00;99.90;;;;;;5047083;28;20484;-88
2022/10/19 10:59:59;;;;;;;7.00;4.72;;;15.10;99.90;;;;;;5048360;28;20048;-87
2022/10/19 11:02:53;;;;;;;10.52;5.47;;;15.10;99.90;;;;;;5047063;28;20063;-87
2022/10/19 11:05:29;;;;;;;6.15;5.03;;;15.20;99.90;;;;;;5047151;28;20033;-87
2022/10/19 11:08:11;;;;;;;5.90;4.35;;;15.20;99.90;;;;;;5066706;28;20049;-88
2022/10/19 11:10:50;;;;;;;5.15;3.28;;;15.20;99.90;;;;;;5068330;28;20033;-87
2022/10/19 11:13:26;;;;;;;11.50;5.15;;;15.10;99.90;;;;;;5066894;28;20031;-87
2022/10/19 11:16:04;;;;;;;10.48;5.05;;;15.10;99.90;;;;;;5066471;28;20036;-87
2022/10/19 11:18:45;;;;;;;6.43;4.93;;;15.10;99.90;;;;;;5087074;28;20025;-88
2022/10/19 11:21:18;;;;;;;7.47;3.58;;;15.10;99.90;;;;;;5067458;28;20040;-88
2022/10/19 11:23:58;;;;;;;7.90;4.15;;;15.10;99.90;;;;;;5066835;28;20037;-87
2022/10/19 11:26:46;;;;;;;6.55;4.50;;;15.30;99.90;;;;;;5068084;28;20033;-87
2022/10/19 11:29:31;;;;;;;5.50;3.92;;;15.50;99.90;;;;;;5066745;28;20041;-88
2022/10/19 11:31:57;;;;;;;11.27;4.95;;;15.60;99.90;;;;;;5067891;28;20097;-88
2022/10/19 11:34:38;;;;;;;5.40;3.00;;;15.70;99.90;;;;;;5066518;28;20025;-88
2022/10/19 11:37:23;;;;;;;22.27;4.13;;;15.80;99.90;;;;;;5067504;28;20427;-88
2022/10/19 11:40:09;;;;;;;9.85;4.40;;;15.80;99.90;;;;;;5066505;28;20021;-88
2022/10/19 11:42:44;;;;;;;14.77;4.20;;;15.80;99.90;;;;;;5066493;28;20094;-88
2022/10/19 11:45:16;;;;;;;9.10;4.45;;;15.70;99.90;;;;;;5066228;28;20040;-88
2022/10/19 11:48:00;;;;;;;5.70;3.63;;;15.70;99.90;;;;;;5066574;28;20386;-89
2022/10/19 11:51:02;;;;;;;6.22;3.65;;;15.60;99.90;;;;;;5066184;28;20436;-87
2022/10/19 11:53:33;;;;;;;5.40;3.10;;;15.60;99.90;;;;;;5045822;28;20387;-88
2022/10/19 11:56:02;;;;;;;5.60;4.53;;;15.60;99.90;;;;;;5066329;28;20097;-88
2022/10/19 11:59:20;;;;;;;7.38;4.05;;;15.70;99.90;;;;;;5066311;28;20025;-88
2022/10/19 12:02:01;;;;;;;5.70;4.60;;;15.80;99.90;;;;;;5025323;28;20061;-88
2022/10/19 12:04:40;;;;;;;9.10;4.25;;;16.00;99.90;;;;;;5025444;28;20481;-87
2022/10/19 12:07:24;;;;;;;3.47;2.70;;;16.00;99.90;;;;;;5028848;28;20175;-88
2022/10/19 12:10:17;;;;;;;5.20;3.53;;;16.20;99.90;;;;;;5065908;28;20037;-87
2022/10/19 12:12:54;;;;;;;12.82;5.88;;;16.20;99.90;;;;;;5066855;28;20041;-87
2022/10/19 12:15:27;;;;;;;8.05;5.05;;;16.30;99.90;;;;;;5065771;28;20025;-88
2022/10/19 12:17:56;;;;;;;8.95;5.05;;;16.50;99.90;;;;;;5067147;28;20029;-88
2022/10/19 12:20:37;;;;;;;5.68;4.18;;;16.50;99.90;;;;;;5065598;28;20036;-88
2022/10/19 12:23:37;;;;;;;10.63;3.92;;;16.70;99.90;;;;;;5045755;28;20090;-88
2022/10/19 12:26:06;;;;;;;9.23;4.57;;;16.70;99.90;;;;;;5031292;28;20037;-88
2022/10/19 12:28:36;;;;;;;5.38;3.83;;;16.80;99.90;;;;;;5045372;28;20049;-89
2022/10/19 12:31:03;;;;;;;;;;;16.80;99.90;;;;;;5051688;28;20059;-88
2022/10/19 12:33:35;;;;;;;6.10;4.38;;;16.90;99.90;;;;;;5065554;28;19908;-89
2022/10/19 12:36:17;;;;;;;6.45;3.13;;;16.80;99.90;;;;;;5048788;28;20045;-89
2022/10/19 12:39:01;;;;;;;7.53;4.93;;;16.90;99.90;;;;;;5066599;28;20140;-87
2022/10/19 12:41:44;;;;;;;4.80;3.42;;;16.90;99.90;;;;;;5065117;28;20021;-89
2022/10/19 12:44:22;;;;;;;8.40;3.88;;;17.00;99.90;;;;;;5065313;28;20116;-88
2022/10/19 12:46:58;;;;;;;8.25;3.35;;;17.00;99.90;;;;;;5065059;28;20031;-88
2022/10/19 12:49:35;;;;;;;4.80;3.28;;;17.00;99.90;;;;;;5064627;28;20029;-88
2022/10/19 12:52:01;;;;;;;7.85;3.90;;;17.00;99.90;;;;;;5065330;28;20128;-87
2022/10/19 12:54:29;;;;;;;3.33;2.42;;;17.00;99.90;;;;;;5066371;28;20017;-88
2022/10/19 12:56:57;;;;;;;7.05;3.67;;;17.10;99.90;;;;;;5064818;28;20029;-88
2022/10/19 12:59:32;;;;;;;12.57;2.42;;;17.00;99.90;;;;;;5048491;28;20037;-87
2022/10/19 13:02:00;;;;;;;5.93;3.03;;;17.10;99.90;;;;;;5065094;28;20059;-88
2022/10/19 13:04:31;;;;;;;6.75;3.67;;;17.10;99.90;;;;;;5064854;28;20048;-89
2022/10/19 13:07:01;;;;;;;6.82;3.13;;;17.20;99.90;;;;;;5064748;28;20040;-89
2022/10/19 13:09:43;;;;;;;10.15;2.67;;;17.10;99.90;;;;;;5064803;28;20128;-87